createdAt,value
2018-01-03T00:00:11.906Z,5.10
2018-01-03T00:01:11.868Z,5.16
2018-01-03T00:02:11.830Z,5.19
2018-01-03T00:03:11.849Z,5.22
2018-01-03T00:04:11.722Z,5.14
2018-01-03T00:05:11.760Z,5.28
2018-01-03T00:06:11.659Z,5.23
2018-01-03T00:07:11.627Z,5.16
2018-01-03T00:08:11.566Z,5.20
2018-01-03T00:09:11.512Z,5.10
2018-01-03T00:10:11.482Z,5.14
2018-01-03T00:11:11.433Z,5.16
2018-01-03T00:12:11.362Z,5.25
2018-01-03T00:13:11.351Z,5.22
2018-01-03T00:14:11.302Z,5.22
2018-01-03T00:15:11.268Z,5.12
2018-01-03T00:16:11.200Z,5.27
2018-01-03T00:17:11.150Z,5.32
2018-01-03T00:18:11.108Z,5.14
2018-01-03T00:19:11.077Z,5.27
2018-01-03T00:20:11.027Z,5.17
2018-01-03T00:21:10.992Z,5.19
2018-01-03T00:22:10.942Z,5.30
2018-01-03T00:23:10.907Z,5.23
2018-01-03T00:24:10.872Z,5.16
2018-01-03T00:25:10.821Z,5.14
2018-01-03T00:26:10.772Z,5.20
2018-01-03T00:27:10.739Z,5.13
2018-01-03T00:28:10.670Z,5.19
2018-01-03T00:29:10.639Z,5.12
2018-01-03T00:30:10.584Z,5.13
2018-01-03T00:31:10.596Z,5.17
2018-01-03T00:32:10.495Z,5.13
2018-01-03T00:33:10.445Z,5.13
2018-01-03T00:34:10.407Z,5.13
2018-01-03T00:35:10.354Z,5.04
2018-01-03T00:36:10.339Z,5.13
2018-01-03T00:37:10.279Z,5.09
2018-01-03T00:38:10.227Z,5.02
2018-01-03T00:39:10.184Z,5.02
2018-01-03T00:40:10.145Z,5.10
2018-01-03T00:41:10.110Z,5.13
2018-01-03T00:42:10.063Z,5.12
2018-01-03T00:43:10.031Z,5.16
2018-01-03T00:44:09.950Z,5.14
2018-01-03T00:45:09.918Z,5.25
2018-01-03T00:46:09.880Z,5.09
2018-01-03T00:47:09.836Z,5.20
2018-01-03T00:48:09.787Z,5.22
2018-01-03T00:49:09.732Z,5.25
2018-01-03T00:50:09.702Z,5.20
2018-01-03T00:51:09.641Z,5.09
2018-01-03T00:52:09.607Z,5.13
2018-01-03T00:53:09.583Z,5.14
2018-01-03T00:54:09.519Z,5.20
2018-01-03T00:55:09.490Z,5.16
2018-01-03T00:56:09.423Z,5.27
2018-01-03T00:57:09.407Z,5.27
2018-01-03T00:58:09.334Z,5.22
2018-01-03T00:59:09.309Z,5.30
2018-01-03T01:00:09.279Z,5.22
2018-01-03T01:01:09.209Z,5.17
2018-01-03T01:02:09.172Z,5.16
2018-01-03T01:03:09.118Z,5.14
2018-01-03T01:04:09.080Z,5.22
2018-01-03T01:05:09.029Z,5.19
2018-01-03T01:06:08.984Z,5.23
2018-01-03T01:07:08.954Z,5.20
2018-01-03T01:08:08.920Z,5.22
2018-01-03T01:09:08.855Z,5.20
2018-01-03T01:10:08.825Z,5.20
2018-01-03T01:11:08.823Z,5.19
2018-01-03T01:12:08.714Z,5.28
2018-01-03T01:13:08.709Z,5.19
2018-01-03T01:14:08.626Z,5.17
2018-01-03T01:15:08.599Z,5.20
2018-01-03T01:16:08.541Z,5.28
2018-01-03T01:17:08.544Z,5.30
2018-01-03T01:18:08.452Z,5.27
2018-01-03T01:19:08.407Z,5.30
2018-01-03T01:20:08.378Z,5.28
2018-01-03T01:21:08.324Z,5.23
2018-01-03T01:22:08.269Z,5.28
2018-01-03T01:23:08.227Z,5.30
2018-01-03T01:24:08.190Z,5.28
2018-01-03T01:25:08.145Z,5.28
2018-01-03T01:26:08.090Z,5.32
2018-01-03T01:27:08.071Z,5.43
2018-01-03T01:28:08.035Z,5.32
2018-01-03T01:29:07.992Z,5.30
2018-01-03T01:30:07.917Z,5.30
2018-01-03T01:31:07.889Z,5.28
2018-01-03T01:32:07.833Z,5.28
2018-01-03T01:33:07.815Z,5.31
2018-01-03T01:34:07.742Z,5.34
2018-01-03T01:35:07.682Z,5.28
2018-01-03T01:36:07.670Z,5.25
2018-01-03T01:37:07.614Z,5.25
2018-01-03T01:38:07.561Z,5.32
2018-01-03T01:39:07.530Z,5.27
2018-01-03T01:40:07.499Z,5.32
2018-01-03T01:41:07.431Z,5.35
2018-01-03T01:42:07.432Z,5.32
2018-01-03T01:43:07.384Z,5.49
2018-01-03T01:44:07.311Z,5.46
2018-01-03T01:45:07.258Z,5.41
2018-01-03T01:46:07.210Z,5.52
2018-01-03T01:47:07.169Z,5.46
2018-01-03T01:48:07.133Z,5.37
2018-01-03T01:49:07.073Z,5.40
2018-01-03T01:50:07.029Z,5.31
2018-01-03T01:51:07.010Z,5.41
2018-01-03T01:52:06.945Z,5.45
2018-01-03T01:53:06.928Z,5.43
2018-01-03T01:54:06.866Z,5.48
2018-01-03T01:55:06.822Z,5.45
2018-01-03T01:56:06.780Z,5.48
2018-01-03T01:57:06.730Z,5.48
2018-01-03T01:58:06.685Z,5.55
2018-01-03T01:59:06.633Z,5.56
2018-01-03T02:00:06.590Z,5.55
2018-01-03T02:01:06.545Z,5.57
2018-01-03T02:02:06.506Z,5.53
2018-01-03T02:03:06.458Z,5.45
2018-01-03T02:04:06.413Z,5.48
2018-01-03T02:05:06.372Z,5.53
2018-01-03T02:06:06.328Z,5.53
2018-01-03T02:07:06.296Z,5.49
2018-01-03T02:08:06.238Z,5.37
2018-01-03T02:09:06.194Z,5.40
2018-01-03T02:10:06.151Z,5.40
2018-01-03T02:11:06.111Z,5.46
2018-01-03T02:12:06.060Z,5.43
2018-01-03T02:13:06.027Z,5.38
2018-01-03T02:14:05.981Z,5.52
2018-01-03T02:15:05.930Z,5.43
2018-01-03T02:16:05.881Z,5.49
2018-01-03T02:17:05.862Z,5.48
2018-01-03T02:18:05.823Z,5.49
2018-01-03T02:19:05.768Z,5.48
2018-01-03T02:20:05.719Z,5.50
2018-01-03T02:21:05.669Z,5.38
2018-01-03T02:22:05.614Z,5.31
2018-01-03T02:23:05.581Z,5.45
2018-01-03T02:24:05.529Z,5.28
2018-01-03T02:25:05.500Z,5.28
2018-01-03T02:26:05.440Z,5.22
2018-01-03T02:27:05.404Z,5.23
2018-01-03T02:28:05.361Z,5.25
2018-01-03T02:29:05.321Z,5.16
2018-01-03T02:30:05.278Z,5.13
2018-01-03T02:31:05.234Z,5.12
2018-01-03T02:32:05.182Z,5.13
2018-01-03T02:33:05.143Z,5.17
2018-01-03T02:34:05.095Z,5.19
2018-01-03T02:35:05.055Z,5.13
2018-01-03T02:36:05.005Z,5.20
2018-01-03T02:37:04.961Z,5.20
2018-01-03T02:38:04.981Z,5.14
2018-01-03T02:39:04.904Z,5.07
2018-01-03T02:40:04.827Z,5.28
2018-01-03T02:41:04.795Z,5.23
2018-01-03T02:42:04.738Z,5.27
2018-01-03T02:43:04.721Z,5.10
2018-01-03T02:44:04.679Z,5.14
2018-01-03T02:45:04.651Z,5.19
2018-01-03T02:46:04.573Z,5.27
2018-01-03T02:47:04.545Z,5.31
2018-01-03T02:48:04.492Z,5.28
2018-01-03T02:49:04.457Z,5.27
2018-01-03T02:50:04.383Z,5.37
2018-01-03T02:51:04.343Z,5.43
2018-01-03T02:52:04.298Z,5.38
2018-01-03T02:53:04.260Z,5.31
2018-01-03T02:54:04.222Z,5.31
2018-01-03T02:55:04.177Z,5.32
2018-01-03T02:56:04.113Z,5.40
2018-01-03T02:57:04.084Z,5.40
2018-01-03T02:58:04.060Z,5.45
2018-01-03T02:59:04.001Z,5.41
2018-01-03T03:00:03.981Z,5.31
2018-01-03T03:01:03.905Z,5.31
2018-01-03T03:02:03.861Z,5.34
2018-01-03T03:03:03.804Z,5.34
2018-01-03T03:04:03.773Z,5.37
2018-01-03T03:05:03.711Z,5.27
2018-01-03T03:06:03.703Z,5.30
2018-01-03T03:07:03.638Z,5.20
2018-01-03T03:08:03.597Z,5.13
2018-01-03T03:09:03.559Z,5.19
2018-01-03T03:10:03.519Z,5.07
2018-01-03T03:11:03.474Z,5.02
2018-01-03T03:12:03.426Z,5.07
2018-01-03T03:13:03.378Z,5.05
2018-01-03T03:14:03.346Z,5.04
2018-01-03T03:15:03.311Z,5.01
2018-01-03T03:16:03.244Z,4.96
2018-01-03T03:17:03.189Z,4.88
2018-01-03T03:18:03.156Z,4.92
2018-01-03T03:19:03.116Z,4.77
2018-01-03T03:20:03.054Z,4.75
2018-01-03T03:21:03.014Z,4.77
2018-01-03T03:22:02.974Z,4.67
2018-01-03T03:23:02.936Z,4.73
2018-01-03T03:24:02.896Z,4.69
2018-01-03T03:25:02.847Z,4.65
2018-01-03T03:26:02.818Z,4.59
2018-01-03T03:27:02.768Z,4.50
2018-01-03T03:28:02.715Z,4.54
2018-01-03T03:29:02.664Z,4.59
2018-01-03T03:30:02.649Z,4.61
2018-01-03T03:31:02.569Z,4.62
2018-01-03T03:32:02.534Z,4.51
2018-01-03T03:33:02.482Z,4.54
2018-01-03T03:34:02.442Z,4.54
2018-01-03T03:35:02.401Z,4.64
2018-01-03T03:36:02.356Z,4.46
2018-01-03T03:37:02.348Z,4.52
2018-01-03T03:38:02.293Z,4.54
2018-01-03T03:39:02.220Z,4.69
2018-01-03T03:40:02.179Z,4.67
2018-01-03T03:41:02.140Z,4.62
2018-01-03T03:42:02.096Z,4.65
2018-01-03T03:43:02.064Z,4.59
2018-01-03T03:44:01.995Z,4.62
2018-01-03T03:45:01.964Z,4.67
2018-01-03T03:46:01.898Z,4.70
2018-01-03T03:47:01.874Z,4.51
2018-01-03T03:48:01.819Z,4.46
2018-01-03T03:49:01.793Z,4.43
2018-01-03T03:50:01.775Z,4.44
2018-01-03T03:51:01.689Z,4.50
2018-01-03T03:52:01.644Z,4.51
2018-01-03T03:53:01.599Z,4.51
2018-01-03T03:54:01.545Z,4.51
2018-01-03T03:55:01.512Z,4.52
2018-01-03T03:56:01.479Z,4.50
2018-01-03T03:57:01.427Z,4.40
2018-01-03T03:58:01.382Z,4.50
2018-01-03T03:59:01.335Z,4.43
2018-01-03T04:00:01.298Z,4.43
2018-01-03T04:01:01.235Z,4.42
2018-01-03T04:02:01.183Z,4.43
2018-01-03T04:03:01.138Z,4.47
2018-01-03T04:04:01.126Z,4.51
2018-01-03T04:05:01.069Z,4.52
2018-01-03T04:06:01.029Z,4.52
2018-01-03T04:07:00.968Z,4.51
2018-01-03T04:08:00.943Z,4.58
2018-01-03T04:09:00.906Z,4.52
2018-01-03T04:10:00.879Z,4.51
2018-01-03T04:11:00.798Z,4.52
2018-01-03T04:12:00.750Z,4.73
2018-01-03T04:13:00.714Z,4.80
2018-01-03T04:14:00.654Z,4.76
2018-01-03T04:15:00.620Z,4.69
2018-01-03T04:16:00.592Z,4.75
2018-01-03T04:17:00.517Z,4.61
2018-01-03T04:18:00.466Z,4.64
2018-01-03T04:19:00.431Z,4.65
2018-01-03T04:20:00.471Z,4.65
2018-01-03T04:21:00.343Z,4.75
2018-01-03T04:22:00.289Z,4.80
2018-01-03T04:23:00.235Z,4.65
2018-01-03T04:24:00.245Z,4.64
2018-01-03T04:25:00.162Z,4.64
2018-01-03T04:26:00.162Z,4.69
2018-01-03T04:27:00.075Z,4.67
2018-01-03T04:28:00.036Z,4.65
2018-01-03T04:28:59.991Z,4.84
2018-01-03T04:29:59.964Z,4.83
2018-01-03T04:30:59.901Z,4.79
2018-01-03T04:31:59.861Z,4.77
2018-01-03T04:32:59.795Z,4.84
2018-01-03T04:33:59.762Z,4.88
2018-01-03T04:34:59.714Z,4.88
2018-01-03T04:35:59.683Z,4.79
2018-01-03T04:36:59.634Z,4.89
2018-01-03T04:37:59.614Z,4.77
2018-01-03T04:38:59.541Z,4.80
2018-01-03T04:39:59.510Z,4.91
2018-01-03T04:40:59.442Z,4.88
2018-01-03T04:41:59.417Z,4.94
2018-01-03T04:42:59.372Z,4.96
2018-01-03T04:43:59.329Z,4.95
2018-01-03T04:44:59.470Z,4.95
2018-01-03T04:45:59.226Z,4.98
2018-01-03T04:46:59.192Z,4.94
2018-01-03T04:47:59.147Z,4.95
2018-01-03T04:48:59.090Z,4.95
2018-01-03T04:49:59.042Z,4.94
2018-01-03T04:50:59.011Z,4.94
2018-01-03T04:51:58.969Z,5.02
2018-01-03T04:52:58.925Z,5.12
2018-01-03T04:53:58.882Z,5.12
2018-01-03T04:54:58.832Z,5.13
2018-01-03T04:55:58.800Z,5.14
2018-01-03T04:56:58.734Z,5.23
2018-01-03T04:57:58.706Z,5.23
2018-01-03T04:58:58.668Z,5.20
2018-01-03T04:59:58.604Z,5.25
2018-01-03T05:00:58.579Z,5.16
2018-01-03T05:01:58.502Z,5.23
2018-01-03T05:02:58.463Z,5.16
2018-01-03T05:03:58.420Z,5.23
2018-01-03T05:04:58.373Z,5.14
2018-01-03T05:05:58.356Z,5.28
2018-01-03T05:06:58.309Z,5.28
2018-01-03T05:07:58.279Z,5.16
2018-01-03T05:08:58.203Z,5.27
2018-01-03T05:09:58.153Z,5.20
2018-01-03T05:10:58.112Z,5.31
2018-01-03T05:11:58.097Z,5.16
2018-01-03T05:12:58.024Z,5.14
2018-01-03T05:13:58.006Z,5.14
2018-01-03T05:14:57.953Z,5.28
2018-01-03T05:15:57.890Z,5.25
2018-01-03T05:16:57.878Z,5.22
2018-01-03T05:17:57.814Z,5.20
2018-01-03T05:18:57.768Z,5.20
2018-01-03T05:19:57.723Z,5.22
2018-01-03T05:20:57.678Z,5.28
2018-01-03T05:21:57.629Z,5.22
2018-01-03T05:22:57.588Z,5.25
2018-01-03T05:23:57.526Z,5.25
2018-01-03T05:24:57.545Z,5.22
2018-01-03T05:25:57.433Z,5.19
2018-01-03T05:26:57.424Z,5.30
2018-01-03T05:27:57.370Z,5.17
2018-01-03T05:28:57.301Z,5.35
2018-01-03T05:29:57.262Z,5.31
2018-01-03T05:30:57.237Z,5.30
2018-01-03T05:31:57.193Z,5.34
2018-01-03T05:32:57.147Z,5.34
2018-01-03T05:33:57.100Z,5.37
2018-01-03T05:34:57.047Z,5.34
2018-01-03T05:35:57.005Z,5.43
2018-01-03T05:36:56.964Z,5.49
2018-01-03T05:37:56.906Z,5.52
2018-01-03T05:38:56.879Z,5.46
2018-01-03T05:39:56.842Z,5.43
2018-01-03T05:40:56.791Z,5.56
2018-01-03T05:41:56.727Z,5.52
2018-01-03T05:42:56.688Z,5.56
2018-01-03T05:43:56.673Z,5.57
2018-01-03T05:44:56.596Z,5.52
2018-01-03T05:45:56.559Z,5.43
2018-01-03T05:46:56.519Z,5.57
2018-01-03T05:47:56.460Z,5.56
2018-01-03T05:48:56.441Z,5.55
2018-01-03T05:49:56.409Z,5.56
2018-01-03T05:50:56.328Z,5.60
2018-01-03T05:51:56.301Z,5.56
2018-01-03T05:52:56.264Z,5.59
2018-01-03T05:53:56.199Z,5.73
2018-01-03T05:54:56.169Z,5.73
2018-01-03T05:55:56.117Z,5.70
2018-01-03T05:56:56.062Z,5.70
2018-01-03T05:57:56.096Z,5.70
2018-01-03T05:58:55.976Z,5.71
2018-01-03T05:59:55.943Z,5.73
2018-01-03T06:00:55.894Z,5.82
2018-01-03T06:01:55.847Z,5.67
2018-01-03T06:02:55.802Z,5.70
2018-01-03T06:03:55.770Z,5.71
2018-01-03T06:04:55.713Z,5.74
2018-01-03T06:05:55.675Z,5.86
2018-01-03T06:06:55.624Z,5.81
2018-01-03T06:07:55.580Z,5.78
2018-01-03T06:08:55.535Z,5.98
2018-01-03T06:09:55.501Z,6.01
2018-01-03T06:10:55.463Z,6.00
2018-01-03T06:11:55.417Z,5.98
2018-01-03T06:12:55.385Z,6.07
2018-01-03T06:13:55.339Z,6.04
2018-01-03T06:14:55.268Z,6.06
2018-01-03T06:15:55.231Z,6.04
2018-01-03T06:16:55.226Z,6.16
2018-01-03T06:17:55.150Z,6.16
2018-01-03T06:18:55.129Z,6.16
2018-01-03T06:19:55.106Z,6.13
2018-01-03T06:20:55.056Z,6.16
2018-01-03T06:21:54.977Z,6.19
2018-01-03T06:22:54.950Z,6.14
2018-01-03T06:23:54.877Z,6.14
2018-01-03T06:24:54.847Z,6.09
2018-01-03T06:25:54.811Z,6.10
2018-01-03T06:26:54.769Z,6.22
2018-01-03T06:27:54.721Z,6.26
2018-01-03T06:28:54.703Z,6.38
2018-01-03T06:29:54.615Z,6.40
2018-01-03T06:30:54.593Z,6.33
2018-01-03T06:31:54.539Z,6.35
2018-01-03T06:32:54.520Z,6.29
2018-01-03T06:33:54.452Z,6.26
2018-01-03T06:34:54.397Z,6.22
2018-01-03T06:35:54.356Z,6.22
2018-01-03T06:36:54.309Z,6.13
2018-01-03T06:37:54.297Z,6.18
2018-01-03T06:38:54.246Z,6.21
2018-01-03T06:39:54.202Z,6.29
2018-01-03T06:40:54.135Z,6.30
2018-01-03T06:41:54.098Z,6.32
2018-01-03T06:42:54.069Z,6.13
2018-01-03T06:43:54.013Z,6.16
2018-01-03T06:44:53.951Z,6.19
2018-01-03T06:45:53.927Z,6.14
2018-01-03T06:46:53.885Z,6.14
2018-01-03T06:47:53.837Z,6.30
2018-01-03T06:48:53.788Z,6.26
2018-01-03T06:49:53.746Z,6.40
2018-01-03T06:50:53.688Z,6.38
2018-01-03T06:51:53.671Z,6.38
2018-01-03T06:52:53.605Z,6.33
2018-01-03T06:53:53.580Z,6.33
2018-01-03T06:54:53.533Z,6.33
2018-01-03T06:55:53.480Z,6.26
2018-01-03T06:56:53.440Z,6.25
2018-01-03T06:57:53.424Z,6.33
2018-01-03T06:58:53.402Z,6.36
2018-01-03T06:59:53.329Z,6.38
2018-01-03T07:00:54.193Z,6.54
2018-01-03T07:01:53.209Z,6.47
2018-01-03T07:02:53.179Z,6.53
2018-01-03T07:03:53.134Z,6.53
2018-01-03T07:04:53.097Z,6.41
2018-01-03T07:05:53.050Z,6.47
2018-01-03T07:06:53.000Z,6.51
2018-01-03T07:07:52.958Z,6.51
2018-01-03T07:08:52.926Z,6.61
2018-01-03T07:09:52.897Z,6.72
2018-01-03T07:10:52.831Z,6.72
2018-01-03T07:11:52.784Z,6.68
2018-01-03T07:12:52.740Z,6.68
2018-01-03T07:13:52.691Z,6.76
2018-01-03T07:14:52.665Z,6.90
2018-01-03T07:15:52.611Z,6.90
2018-01-03T07:16:52.566Z,6.90
2018-01-03T07:17:52.518Z,6.87
2018-01-03T07:18:52.558Z,6.84
2018-01-03T07:19:52.426Z,6.89
2018-01-03T07:20:52.398Z,6.76
2018-01-03T07:21:52.375Z,6.84
2018-01-03T07:22:52.298Z,6.89
2018-01-03T07:23:52.258Z,6.86
2018-01-03T07:24:52.217Z,6.86
2018-01-03T07:25:52.177Z,6.87
2018-01-03T07:26:52.125Z,7.02
2018-01-03T07:27:52.087Z,6.97
2018-01-03T07:28:52.046Z,6.86
2018-01-03T07:29:52.019Z,6.95
2018-01-03T07:30:51.963Z,6.95
2018-01-03T07:31:51.912Z,7.05
2018-01-03T07:32:51.881Z,6.98
2018-01-03T07:33:51.829Z,6.97
2018-01-03T07:34:51.794Z,6.99
2018-01-03T07:35:51.747Z,7.04
2018-01-03T07:36:51.714Z,7.01
2018-01-03T07:37:51.653Z,6.98
2018-01-03T07:38:51.609Z,6.99
2018-01-03T07:39:51.568Z,7.01
2018-01-03T07:40:51.518Z,7.08
2018-01-03T07:41:51.479Z,7.13
2018-01-03T07:42:51.448Z,7.22
2018-01-03T07:43:51.393Z,7.23
2018-01-03T07:44:51.393Z,7.32
2018-01-03T07:45:51.313Z,7.27
2018-01-03T07:46:51.289Z,7.49
2018-01-03T07:47:51.242Z,7.62
2018-01-03T07:48:51.202Z,7.56
2018-01-03T07:49:51.133Z,7.79
2018-01-03T07:50:51.099Z,7.71
2018-01-03T07:51:51.049Z,7.66
2018-01-03T07:52:51.022Z,7.75
2018-01-03T07:53:50.965Z,7.79
2018-01-03T07:54:50.929Z,7.81
2018-01-03T07:55:50.880Z,7.84
2018-01-03T07:56:50.865Z,7.93
2018-01-03T07:57:50.931Z,7.97
2018-01-03T07:58:50.756Z,7.87
2018-01-03T07:59:50.737Z,7.92
2018-01-03T08:00:50.700Z,7.82
2018-01-03T08:01:50.629Z,7.94
2018-01-03T08:02:50.580Z,7.92
2018-01-03T08:03:50.542Z,7.87
2018-01-03T08:04:50.509Z,7.87
2018-01-03T08:05:50.463Z,8.00
2018-01-03T08:06:50.429Z,7.89
2018-01-03T08:07:50.384Z,7.87
2018-01-03T08:08:50.342Z,7.87
2018-01-03T08:09:50.294Z,7.89
2018-01-03T08:10:50.248Z,7.84
2018-01-03T08:11:50.231Z,7.82
2018-01-03T08:12:50.171Z,7.84
2018-01-03T08:13:50.126Z,8.00
2018-01-03T08:14:50.096Z,7.97
2018-01-03T08:15:50.130Z,7.93
2018-01-03T08:16:50.012Z,7.97
2018-01-03T08:17:49.955Z,8.12
2018-01-03T08:18:49.904Z,8.08
2018-01-03T08:19:49.864Z,8.03
2018-01-03T08:20:49.810Z,8.11
2018-01-03T08:21:49.761Z,8.15
2018-01-03T08:22:49.737Z,8.11
2018-01-03T08:23:49.720Z,8.14
2018-01-03T08:24:49.647Z,7.97
2018-01-03T08:25:49.616Z,8.02
2018-01-03T08:26:49.580Z,7.96
2018-01-03T08:27:49.517Z,8.02
2018-01-03T08:28:49.477Z,8.10
2018-01-03T08:29:49.450Z,8.02
2018-01-03T08:30:49.405Z,8.00
2018-01-03T08:31:49.364Z,7.96
2018-01-03T08:32:49.320Z,7.89
2018-01-03T08:33:49.277Z,7.92
2018-01-03T08:34:49.226Z,7.93
2018-01-03T08:35:49.200Z,7.94
2018-01-03T08:36:49.131Z,7.96
2018-01-03T08:37:49.131Z,8.02
2018-01-03T08:38:49.052Z,8.02
2018-01-03T08:39:49.044Z,8.00
2018-01-03T08:40:48.979Z,7.89
2018-01-03T08:41:49.349Z,7.81
2018-01-03T08:42:48.900Z,7.67
2018-01-03T08:43:48.868Z,7.58
2018-01-03T08:44:48.792Z,7.59
2018-01-03T08:45:48.758Z,7.72
2018-01-03T08:46:48.759Z,7.78
2018-01-03T08:47:48.694Z,7.63
2018-01-03T08:48:48.720Z,7.74
2018-01-03T08:49:48.599Z,7.84
2018-01-03T08:50:48.559Z,7.75
2018-01-03T08:51:48.509Z,7.79
2018-01-03T08:52:48.466Z,7.84
2018-01-03T08:53:48.422Z,7.78
2018-01-03T08:54:48.388Z,7.79
2018-01-03T08:55:48.334Z,7.84
2018-01-03T08:56:48.294Z,7.87
2018-01-03T08:57:48.281Z,7.78
2018-01-03T08:58:48.207Z,7.82
2018-01-03T08:59:48.166Z,7.81
2018-01-03T09:00:48.123Z,7.85
2018-01-03T09:01:48.100Z,7.78
2018-01-03T09:02:48.051Z,7.79
2018-01-03T09:03:48.004Z,7.74
2018-01-03T09:04:47.946Z,7.72
2018-01-03T09:05:47.950Z,7.71
2018-01-03T09:06:47.885Z,7.69
2018-01-03T09:07:47.831Z,7.60
2018-01-03T09:08:47.838Z,7.53
2018-01-03T09:09:47.756Z,7.56
2018-01-03T09:10:47.706Z,7.60
2018-01-03T09:11:47.660Z,7.66
2018-01-03T09:12:47.688Z,7.58
2018-01-03T09:13:47.619Z,7.63
2018-01-03T09:14:47.532Z,7.66
2018-01-03T09:15:47.494Z,7.50
2018-01-03T09:16:47.445Z,7.62
2018-01-03T09:17:47.405Z,7.62
2018-01-03T09:18:47.356Z,7.71
2018-01-03T09:19:47.315Z,7.77
2018-01-03T09:20:47.280Z,7.84
2018-01-03T09:21:47.247Z,7.81
2018-01-03T09:22:47.193Z,7.90
2018-01-03T09:23:47.141Z,7.96
2018-01-03T09:24:47.086Z,8.02
2018-01-03T09:25:47.078Z,8.00
2018-01-03T09:26:47.020Z,8.00
2018-01-03T09:27:46.985Z,7.93
2018-01-03T09:28:46.923Z,7.99
2018-01-03T09:29:46.902Z,8.00
2018-01-03T09:30:46.870Z,8.15
2018-01-03T09:31:46.818Z,8.15
2018-01-03T09:32:46.753Z,8.22
2018-01-03T09:33:46.743Z,8.33
2018-01-03T09:34:46.678Z,8.30
2018-01-03T09:35:46.671Z,8.32
2018-01-03T09:36:46.596Z,8.30
2018-01-03T09:37:46.565Z,8.29
2018-01-03T09:38:46.512Z,8.33
2018-01-03T09:39:46.468Z,8.29
2018-01-03T09:40:46.442Z,8.42
2018-01-03T09:41:46.399Z,8.87
2018-01-03T09:42:46.362Z,9.53
2018-01-03T09:43:46.335Z,10.33
2018-01-03T09:44:46.271Z,10.18
2018-01-03T09:45:46.301Z,11.06
2018-01-03T09:46:46.180Z,11.28
2018-01-03T09:47:46.228Z,11.65
2018-01-03T09:48:46.113Z,11.39
2018-01-03T09:49:46.063Z,11.83
2018-01-03T09:50:46.031Z,11.52
2018-01-03T09:51:46.011Z,12.27
2018-01-03T09:52:45.972Z,12.24
2018-01-03T09:53:45.913Z,11.82
2018-01-03T09:54:45.888Z,11.57
2018-01-03T09:55:45.862Z,12.13
2018-01-03T09:56:45.827Z,12.45
2018-01-03T09:57:45.885Z,11.87
2018-01-03T09:58:45.767Z,11.90
2018-01-03T09:59:45.732Z,11.46
2018-01-03T10:00:45.704Z,11.59
2018-01-03T10:01:45.656Z,12.04
2018-01-03T10:02:45.625Z,11.62
2018-01-03T10:03:45.602Z,11.06
2018-01-03T10:04:45.564Z,11.82
2018-01-03T10:05:45.559Z,11.38
2018-01-03T10:06:45.514Z,11.87
2018-01-03T10:07:45.458Z,11.99
2018-01-03T10:08:45.432Z,11.53
2018-01-03T10:09:45.419Z,11.75
2018-01-03T10:10:45.387Z,11.13
2018-01-03T10:11:45.360Z,10.71
2018-01-03T10:12:45.343Z,10.77
2018-01-03T10:13:45.280Z,10.91
2018-01-03T10:14:45.245Z,10.73
2018-01-03T10:15:45.231Z,10.09
2018-01-03T10:16:45.195Z,9.91
2018-01-03T10:17:45.153Z,9.66
2018-01-03T10:18:45.132Z,9.42
2018-01-03T10:19:45.106Z,9.30
2018-01-03T10:20:45.072Z,9.27
2018-01-03T10:21:45.036Z,9.21
2018-01-03T10:22:44.993Z,9.02
2018-01-03T10:23:44.981Z,8.91
2018-01-03T10:24:44.935Z,8.96
2018-01-03T10:25:44.905Z,9.01
2018-01-03T10:26:44.859Z,8.97
2018-01-03T10:27:44.861Z,8.99
2018-01-03T10:28:44.797Z,8.84
2018-01-03T10:29:44.779Z,8.91
2018-01-03T10:30:44.732Z,8.83
2018-01-03T10:31:44.685Z,8.73
2018-01-03T10:32:44.649Z,8.71
2018-01-03T10:33:44.614Z,8.83
2018-01-03T10:34:44.575Z,8.88
2018-01-03T10:35:44.552Z,8.90
2018-01-03T10:36:44.494Z,9.05
2018-01-03T10:37:44.477Z,9.18
2018-01-03T10:38:44.434Z,9.13
2018-01-03T10:39:44.392Z,9.05
2018-01-03T10:40:44.365Z,9.16
2018-01-03T10:41:44.320Z,8.96
2018-01-03T10:42:44.315Z,9.05
2018-01-03T10:43:44.268Z,9.34
2018-01-03T10:44:44.214Z,9.18
2018-01-03T10:45:44.176Z,9.23
2018-01-03T10:46:44.150Z,9.27
2018-01-03T10:47:44.082Z,9.25
2018-01-03T10:48:44.055Z,9.30
2018-01-03T10:49:44.024Z,9.57
2018-01-03T10:50:43.986Z,9.61
2018-01-03T10:51:43.938Z,9.60
2018-01-03T10:52:43.912Z,9.79
2018-01-03T10:53:43.889Z,9.96
2018-01-03T10:54:43.808Z,10.42
2018-01-03T10:55:43.785Z,10.65
2018-01-03T10:56:43.775Z,10.77
2018-01-03T10:57:43.705Z,10.32
2018-01-03T10:58:43.694Z,9.79
2018-01-03T10:59:43.633Z,9.60
2018-01-03T11:00:43.605Z,9.39
2018-01-03T11:01:43.559Z,9.38
2018-01-03T11:02:43.562Z,9.25
2018-01-03T11:03:43.494Z,9.13
2018-01-03T11:04:43.469Z,9.02
2018-01-03T11:05:43.411Z,9.02
2018-01-03T11:06:43.359Z,9.12
2018-01-03T11:07:43.325Z,8.96
2018-01-03T11:08:43.290Z,8.93
2018-01-03T11:09:43.255Z,8.94
2018-01-03T11:10:43.217Z,8.83
2018-01-03T11:11:43.199Z,8.68
2018-01-03T11:12:43.154Z,8.08
2018-01-03T11:13:43.100Z,7.16
2018-01-03T11:14:43.068Z,6.50
2018-01-03T11:15:43.033Z,6.32
2018-01-03T11:16:43.094Z,6.13
2018-01-03T11:17:42.956Z,5.78
2018-01-03T11:18:42.920Z,5.81
2018-01-03T11:19:42.971Z,5.67
2018-01-03T11:20:49.362Z,5.60
2018-01-03T11:23:16.315Z,5.46
2018-01-03T11:24:15.967Z,5.50
2018-01-03T11:26:08.988Z,5.43
2018-01-03T11:27:08.925Z,5.46
2018-01-03T11:28:08.866Z,5.40
2018-01-03T11:29:08.857Z,5.40
2018-01-03T11:30:08.797Z,5.40
2018-01-03T11:31:08.996Z,5.35
2018-01-03T11:32:08.702Z,5.31
2018-01-03T11:33:08.650Z,5.31
2018-01-03T11:34:08.605Z,5.23
2018-01-03T11:35:08.562Z,5.32
2018-01-03T11:36:08.571Z,5.28
2018-01-03T11:37:08.499Z,5.40
2018-01-03T11:38:08.544Z,5.34
2018-01-03T11:39:08.429Z,5.30
2018-01-03T11:40:08.351Z,5.30
2018-01-03T11:41:08.313Z,5.28
2018-01-03T11:42:08.301Z,5.19
2018-01-03T11:43:08.226Z,5.20
2018-01-03T11:44:08.189Z,5.17
2018-01-03T11:45:08.139Z,5.25
2018-01-03T11:46:08.107Z,5.17
2018-01-03T11:47:08.050Z,5.19
2018-01-03T11:48:08.037Z,5.30
2018-01-03T11:49:07.978Z,5.25
2018-01-03T11:50:07.918Z,5.20
2018-01-03T11:51:07.908Z,5.23
2018-01-03T11:52:07.857Z,5.25
2018-01-03T11:53:07.821Z,5.14
2018-01-03T11:54:07.753Z,5.27
2018-01-03T11:55:07.726Z,5.10
2018-01-03T11:56:07.666Z,5.10
2018-01-03T11:57:07.650Z,5.14
2018-01-03T11:58:07.588Z,5.16
2018-01-03T11:59:07.551Z,5.13
2018-01-03T12:00:07.496Z,5.05
2018-01-03T12:01:07.448Z,5.09
2018-01-03T12:02:07.487Z,5.17
2018-01-03T12:03:07.364Z,5.16
2018-01-03T12:04:07.315Z,5.19
2018-01-03T12:05:07.277Z,5.23
2018-01-03T12:06:07.237Z,5.34
2018-01-03T12:07:07.197Z,5.31
2018-01-03T12:08:07.149Z,5.30
2018-01-03T12:09:07.110Z,5.30
2018-01-03T12:10:07.052Z,5.40
2018-01-03T12:11:07.050Z,5.48
2018-01-03T12:12:06.995Z,5.48
2018-01-03T12:13:06.936Z,5.50
2018-01-03T12:14:06.883Z,5.43
2018-01-03T12:15:06.853Z,5.50
2018-01-03T12:16:06.802Z,5.35
2018-01-03T12:17:06.761Z,5.38
2018-01-03T12:18:06.735Z,5.35
2018-01-03T12:19:06.670Z,5.35
2018-01-03T12:20:06.629Z,5.37
2018-01-03T12:21:06.595Z,5.37
2018-01-03T12:22:06.538Z,5.34
2018-01-03T12:23:06.497Z,5.32
2018-01-03T12:24:06.463Z,5.25
2018-01-03T12:25:06.413Z,5.28
2018-01-03T12:26:06.381Z,5.41
2018-01-03T12:27:06.326Z,5.48
2018-01-03T12:28:06.281Z,5.55
2018-01-03T12:29:06.257Z,5.59
2018-01-03T12:30:06.185Z,5.66
2018-01-03T12:31:06.163Z,5.73
2018-01-03T12:32:06.099Z,5.74
2018-01-03T12:33:06.066Z,5.68
2018-01-03T12:34:06.035Z,5.74
2018-01-03T12:35:05.989Z,5.66
2018-01-03T12:36:05.938Z,5.67
2018-01-03T12:37:05.885Z,5.73
2018-01-03T12:38:05.855Z,5.66
2018-01-03T12:39:05.820Z,5.81
2018-01-03T12:40:05.754Z,5.64
2018-01-03T12:41:05.748Z,5.73
2018-01-03T12:42:05.696Z,5.75
2018-01-03T12:43:05.636Z,5.74
2018-01-03T12:44:05.593Z,5.64
2018-01-03T12:45:05.609Z,5.67
2018-01-03T12:46:05.508Z,5.67
2018-01-03T12:47:05.463Z,5.68
2018-01-03T12:48:05.422Z,5.68
2018-01-03T12:49:05.384Z,5.68
2018-01-03T12:50:05.342Z,5.59
2018-01-03T12:51:05.288Z,5.60
2018-01-03T12:52:05.256Z,5.63
2018-01-03T12:53:05.204Z,5.64
2018-01-03T12:54:05.170Z,5.71
2018-01-03T12:55:05.147Z,5.63
2018-01-03T12:56:05.084Z,5.83
2018-01-03T12:57:05.060Z,5.86
2018-01-03T12:58:05.001Z,5.85
2018-01-03T12:59:04.953Z,5.89
2018-01-03T13:00:04.911Z,5.93
2018-01-03T13:01:04.862Z,5.91
2018-01-03T13:02:04.812Z,5.91
2018-01-03T13:03:04.782Z,5.89
2018-01-03T13:04:04.740Z,5.91
2018-01-03T13:05:04.692Z,6.04
2018-01-03T13:06:04.744Z,5.95
2018-01-03T13:07:04.605Z,5.92
2018-01-03T13:08:04.564Z,5.88
2018-01-03T13:09:04.533Z,5.83
2018-01-03T13:10:04.478Z,5.93
2018-01-03T13:11:04.431Z,6.09
2018-01-03T13:12:04.389Z,6.07
2018-01-03T13:13:04.351Z,6.11
2018-01-03T13:14:04.314Z,6.11
2018-01-03T13:15:04.258Z,6.18
2018-01-03T13:16:04.244Z,6.16
2018-01-03T13:17:04.186Z,6.16
2018-01-03T13:18:04.207Z,6.13
2018-01-03T13:19:04.109Z,6.06